createdAt,value
2022-09-20T00:00:13.420Z,11.72
2022-09-20T00:02:41.390Z,11.76
2022-09-20T00:05:09.642Z,11.77
2022-09-20T00:07:37.721Z,11.76
2022-09-20T00:10:06.102Z,11.75
2022-09-20T00:12:33.916Z,11.68
2022-09-20T00:15:03.238Z,11.69
2022-09-20T00:17:31.316Z,11.69
2022-09-20T00:19:59.008Z,11.65
2022-09-20T00:22:27.482Z,11.63
2022-09-20T00:24:55.298Z,11.57
2022-09-20T00:27:23.092Z,11.52
2022-09-20T00:29:50.872Z,11.49
2022-09-20T00:32:19.962Z,11.47
2022-09-20T00:35:05.212Z,11.39
2022-09-20T00:37:33.372Z,11.32
2022-09-20T00:40:01.168Z,11.25
2022-09-20T00:42:29.647Z,11.20
2022-09-20T00:44:59.380Z,11.20
2022-09-20T00:47:34.227Z,11.16
2022-09-20T00:50:11.957Z,11.14
2022-09-20T00:52:40.691Z,11.18
2022-09-20T00:55:10.206Z,11.19
2022-09-20T00:57:38.847Z,11.19
2022-09-20T01:00:08.938Z,11.14
2022-09-20T01:02:43.016Z,11.11
2022-09-20T01:05:12.414Z,11.13
2022-09-20T01:07:41.435Z,11.14
2022-09-20T01:10:09.652Z,11.14
2022-09-20T01:12:40.310Z,11.18
2022-09-20T01:15:10.449Z,11.23
2022-09-20T01:17:44.153Z,11.21
2022-09-20T01:20:19.968Z,11.20
2022-09-20T01:23:13.258Z,11.20
2022-09-20T01:26:08.108Z,11.21
2022-09-20T01:28:37.769Z,11.26
2022-09-20T01:31:10.542Z,11.22
2022-09-20T01:33:46.545Z,11.26
2022-09-20T01:36:19.674Z,11.20
2022-09-20T01:38:58.664Z,11.25
2022-09-20T01:41:32.450Z,11.26
2022-09-20T01:44:13.607Z,11.23
2022-09-20T01:46:43.674Z,11.21
2022-09-20T01:49:23.724Z,11.21
2022-09-20T01:52:41.132Z,11.18
2022-09-20T01:55:53.332Z,11.18
2022-09-20T01:59:24.100Z,11.19
2022-09-20T02:02:23.045Z,11.20
2022-09-20T02:05:13.738Z,11.21
2022-09-20T02:08:07.014Z,11.19
2022-09-20T02:11:05.013Z,11.21
2022-09-20T02:13:40.890Z,11.23
2022-09-20T02:16:32.238Z,11.23
2022-09-20T02:19:34.687Z,11.20
2022-09-20T02:22:15.915Z,11.25
2022-09-20T02:24:51.845Z,11.23
2022-09-20T02:27:27.870Z,11.26
2022-09-20T02:30:10.323Z,11.26
2022-09-20T02:33:11.136Z,11.24
2022-09-20T02:35:53.791Z,11.27
2022-09-20T02:38:37.623Z,11.24
2022-09-20T02:41:49.703Z,11.26
2022-09-20T02:44:27.431Z,11.23
2022-09-20T02:47:03.051Z,11.23
2022-09-20T02:49:37.281Z,11.25
2022-09-20T02:52:16.228Z,11.24
2022-09-20T02:54:52.772Z,11.23
2022-09-20T02:57:26.201Z,11.24
2022-09-20T02:59:59.650Z,11.26
2022-09-20T03:02:31.711Z,11.25
2022-09-20T03:05:12.912Z,11.25
2022-09-20T03:07:53.888Z,11.30
2022-09-20T03:10:30.092Z,11.28
2022-09-20T03:13:16.902Z,11.32
2022-09-20T03:15:57.922Z,11.33
2022-09-20T03:18:42.367Z,11.33
2022-09-20T03:21:22.664Z,11.32
2022-09-20T03:24:03.484Z,11.34
2022-09-20T03:26:48.751Z,11.33
2022-09-20T03:29:22.245Z,11.24
2022-09-20T03:32:04.586Z,11.16
2022-09-20T03:34:43.018Z,11.15
2022-09-20T03:37:35.145Z,11.13
2022-09-20T03:40:39.239Z,11.14
2022-09-20T03:43:19.078Z,11.19
2022-09-20T03:45:59.342Z,11.21
2022-09-20T03:48:55.878Z,11.18
2022-09-20T03:51:33.912Z,11.19
2022-09-20T03:54:56.944Z,11.21
2022-09-20T03:57:40.131Z,11.19
2022-09-20T04:00:25.683Z,11.22
2022-09-20T04:03:15.045Z,11.25
2022-09-20T04:05:54.245Z,11.21
2022-09-20T04:08:40.430Z,11.24
2022-09-20T04:11:16.707Z,11.27
2022-09-20T04:13:53.574Z,11.26
2022-09-20T04:16:35.799Z,11.23
2022-09-20T04:19:12.510Z,11.23
2022-09-20T04:21:47.052Z,11.21
2022-09-20T04:24:22.690Z,11.22
2022-09-20T04:26:54.523Z,11.24
2022-09-20T04:29:37.405Z,11.25
2022-09-20T04:32:16.485Z,11.23
2022-09-20T04:35:07.207Z,11.21
2022-09-20T04:37:38.559Z,11.14
2022-09-20T04:40:34.849Z,11.15
2022-09-20T04:43:52.231Z,11.16
2022-09-20T04:47:00.012Z,11.12
2022-09-20T04:50:01.476Z,11.12
2022-09-20T04:53:09.022Z,11.07
2022-09-20T04:55:55.577Z,11.07
2022-09-20T04:58:44.656Z,11.03
2022-09-20T05:01:36.731Z,11.02
2022-09-20T05:04:34.277Z,11.04
2022-09-20T05:07:56.790Z,11.03
2022-09-20T05:11:00.053Z,11.01
2022-09-20T05:13:41.123Z,11.05
2022-09-20T05:16:20.229Z,11.06
2022-09-20T05:19:12.167Z,11.10
2022-09-20T05:22:10.400Z,11.14
2022-09-20T05:25:13.927Z,11.13
2022-09-20T05:27:47.475Z,11.10
2022-09-20T05:30:24.631Z,11.15
2022-09-20T05:33:01.984Z,11.12
2022-09-20T05:35:38.291Z,11.18
2022-09-20T05:38:16.633Z,11.22
2022-09-20T05:41:01.561Z,11.24
2022-09-20T05:43:33.443Z,11.22
2022-09-20T05:46:17.556Z,11.31
2022-09-20T05:48:56.769Z,11.36
2022-09-20T05:51:48.731Z,11.39
2022-09-20T05:54:30.190Z,11.43
2022-09-20T05:57:13.629Z,11.46
2022-09-20T05:59:57.768Z,11.44
2022-09-20T06:02:36.591Z,11.52
2022-09-20T06:05:14.141Z,11.59
2022-09-20T06:07:56.751Z,11.62
2022-09-20T06:10:41.771Z,11.68
2022-09-20T06:13:24.261Z,11.70
2022-09-20T06:16:00.716Z,11.71
2022-09-20T06:18:37.372Z,11.79
2022-09-20T06:21:15.072Z,11.84
2022-09-20T06:23:43.044Z,11.84
2022-09-20T06:26:17.288Z,11.93
2022-09-20T06:28:48.398Z,11.95
2022-09-20T06:31:17.323Z,11.94
2022-09-20T06:33:53.653Z,12.08
2022-09-20T06:36:44.681Z,12.06
2022-09-20T06:39:40.729Z,12.08
2022-09-20T06:42:10.544Z,12.10
2022-09-20T06:44:41.185Z,12.25
2022-09-20T06:47:10.402Z,12.35
2022-09-20T06:49:41.790Z,12.26
2022-09-20T06:52:13.641Z,12.15
2022-09-20T06:54:45.754Z,12.20
2022-09-20T06:57:16.587Z,12.20
2022-09-20T06:59:45.574Z,12.30
2022-09-20T07:02:13.370Z,12.39
2022-09-20T07:04:43.570Z,12.44
2022-09-20T07:07:18.267Z,12.39
2022-09-20T07:09:46.135Z,12.30
2022-09-20T07:12:14.215Z,12.25
2022-09-20T07:14:42.972Z,12.33
2022-09-20T07:17:11.137Z,12.53
2022-09-20T07:19:38.908Z,13.32
2022-09-20T07:22:08.193Z,13.33
2022-09-20T07:24:36.370Z,13.27
2022-09-20T07:27:06.448Z,13.69
2022-09-20T07:29:35.162Z,14.46
2022-09-20T07:32:03.332Z,14.41
2022-09-20T07:34:32.072Z,14.31
2022-09-20T07:37:00.173Z,14.94
2022-09-20T07:39:29.307Z,14.49
2022-09-20T07:41:57.277Z,14.42
2022-09-20T07:44:25.435Z,14.43
2022-09-20T07:46:54.725Z,14.76
2022-09-20T07:49:23.650Z,14.93
2022-09-20T07:51:52.156Z,14.74
2022-09-20T07:54:20.718Z,15.00
2022-09-20T07:56:49.956Z,14.86
2022-09-20T07:59:17.939Z,14.74
2022-09-20T08:01:45.809Z,14.91
2022-09-20T08:04:14.544Z,15.58
2022-09-20T08:06:44.437Z,15.12
2022-09-20T08:09:13.390Z,15.53
2022-09-20T08:11:43.445Z,15.58
2022-09-20T08:14:15.165Z,15.49
2022-09-20T08:16:45.523Z,15.96
2022-09-20T08:19:16.994Z,16.75
2022-09-20T08:21:45.068Z,15.80
2022-09-20T08:24:13.254Z,15.43
2022-09-20T08:26:41.470Z,16.56
2022-09-20T08:29:09.536Z,16.01
2022-09-20T08:31:42.329Z,15.71
2022-09-20T08:34:12.549Z,15.63
2022-09-20T08:36:42.077Z,16.73
2022-09-20T08:42:08.783Z,16.94
2022-09-20T08:44:46.866Z,16.69
2022-09-20T08:47:22.222Z,17.69
2022-09-20T08:49:56.690Z,18.36
2022-09-20T08:52:36.253Z,18.94
2022-09-20T08:55:13.709Z,19.60
2022-09-20T08:57:41.442Z,18.83
2022-09-20T09:00:18.590Z,17.72
2022-09-20T09:02:48.989Z,17.67
2022-09-20T09:05:35.590Z,18.03
2022-09-20T09:08:08.853Z,18.49
2022-09-20T09:10:46.356Z,17.70
2022-09-20T09:13:25.879Z,16.80
2022-09-20T09:15:58.243Z,16.98
2022-09-20T09:18:36.445Z,16.53
2022-09-20T09:21:05.847Z,16.30
2022-09-20T09:23:41.489Z,16.04
2022-09-20T09:26:17.258Z,15.62
2022-09-20T09:28:45.078Z,15.80
2022-09-20T09:31:15.919Z,16.05
2022-09-20T09:33:48.298Z,16.10
2022-09-20T09:36:18.990Z,16.30
2022-09-20T09:38:48.057Z,16.28
2022-09-20T09:41:26.245Z,16.39
2022-09-20T09:44:02.288Z,16.13
2022-09-20T09:46:33.261Z,16.08
2022-09-20T09:49:15.401Z,16.36
2022-09-20T09:52:01.577Z,16.44
2022-09-20T09:54:32.125Z,16.29
2022-09-20T09:57:15.822Z,16.27
2022-09-20T09:59:57.559Z,16.24
2022-09-20T10:02:46.847Z,15.99
2022-09-20T10:05:20.137Z,15.64
2022-09-20T10:07:55.873Z,15.44
2022-09-20T10:10:36.011Z,15.59
2022-09-20T10:13:16.684Z,15.65
2022-09-20T10:15:51.824Z,15.58
2022-09-20T10:18:32.832Z,15.49
2022-09-20T10:21:10.046Z,15.58
2022-09-20T10:24:03.662Z,15.40
2022-09-20T10:26:51.658Z,15.54
2022-09-20T10:29:32.962Z,15.79
2022-09-20T10:32:15.330Z,15.67
2022-09-20T10:35:14.813Z,15.93
2022-09-20T10:38:00.719Z,15.79
2022-09-20T10:40:47.949Z,15.45
2022-09-20T10:43:28.912Z,15.52
2022-09-20T10:46:30.967Z,15.32
2022-09-20T10:49:18.061Z,15.54
2022-09-20T10:51:55.816Z,15.29
2022-09-20T10:54:40.103Z,15.07
2022-09-20T10:57:26.327Z,15.29
2022-09-20T11:00:01.840Z,15.38
2022-09-20T11:02:36.857Z,15.30
2022-09-20T11:05:25.551Z,15.50
2022-09-20T11:08:04.425Z,15.46
2022-09-20T11:10:37.854Z,15.70
2022-09-20T11:13:11.932Z,15.93
2022-09-20T11:15:45.236Z,16.33
2022-09-20T11:18:23.620Z,16.09
2022-09-20T11:20:59.368Z,16.53
2022-09-20T11:23:42.003Z,16.66
2022-09-20T11:26:16.351Z,17.03
2022-09-20T11:28:49.349Z,17.37
2022-09-20T11:31:24.515Z,17.65
2022-09-20T11:33:54.174Z,18.54
2022-09-20T11:36:27.620Z,18.41
2022-09-20T11:38:58.668Z,17.92
2022-09-20T11:41:29.538Z,17.54
2022-09-20T11:44:01.988Z,16.57
2022-09-20T11:46:34.588Z,16.49
2022-09-20T11:49:07.736Z,16.35
2022-09-20T11:52:12.793Z,15.80
2022-09-20T11:55:04.840Z,16.13
2022-09-20T11:57:34.352Z,15.88
2022-09-20T12:00:04.172Z,15.83
2022-09-20T12:02:45.614Z,15.99
2022-09-20T12:05:27.872Z,15.70
2022-09-20T12:07:59.309Z,15.95
2022-09-20T12:10:30.457Z,15.86
2022-09-20T12:13:02.163Z,15.59
2022-09-20T12:15:33.123Z,15.57
2022-09-20T12:18:29.788Z,15.25
2022-09-20T12:21:15.382Z,15.26
2022-09-20T12:24:21.653Z,15.29
2022-09-20T12:26:51.264Z,14.97
2022-09-20T12:29:57.265Z,14.86
2022-09-20T12:32:55.004Z,14.75
2022-09-20T12:36:14.160Z,14.96
2022-09-20T12:38:57.882Z,15.25
2022-09-20T12:41:28.556Z,15.05
2022-09-20T12:44:04.625Z,14.93
2022-09-20T12:46:43.561Z,14.97
2022-09-20T12:49:41.038Z,15.04
2022-09-20T12:52:41.453Z,15.15
2022-09-20T12:55:11.805Z,15.15
2022-09-20T12:57:40.926Z,15.22
2022-09-20T13:00:28.725Z,15.06
2022-09-20T13:03:02.411Z,15.23
2022-09-20T13:05:38.021Z,15.37
2022-09-20T13:08:20.206Z,15.41
2022-09-20T13:10:51.733Z,15.87
2022-09-20T13:13:31.653Z,16.51
2022-09-20T13:16:05.421Z,16.49
2022-09-20T13:18:37.140Z,17.16
2022-09-20T13:21:08.386Z,17.49
2022-09-20T13:23:47.458Z,18.24
2022-09-20T13:26:17.229Z,18.12
2022-09-20T13:28:51.679Z,18.27
2022-09-20T13:31:28.010Z,18.30
2022-09-20T13:34:14.124Z,18.49
2022-09-20T13:36:42.737Z,18.66
2022-09-20T13:39:10.517Z,18.44
2022-09-20T13:41:38.731Z,18.20
2022-09-20T13:44:07.217Z,18.10
2022-09-20T13:46:35.298Z,17.27
2022-09-20T13:49:20.739Z,16.94
2022-09-20T13:51:49.049Z,16.55
2022-09-20T13:54:27.342Z,16.67
2022-09-20T13:56:57.755Z,16.91
2022-09-20T13:59:35.929Z,16.66
2022-09-20T14:02:04.228Z,16.60
2022-09-20T14:04:33.375Z,16.48
2022-09-20T14:07:02.012Z,16.44
2022-09-20T14:09:34.045Z,16.25
2022-09-20T14:12:04.477Z,16.00
2022-09-20T14:14:34.267Z,16.10
2022-09-20T14:17:05.701Z,16.08
2022-09-20T14:19:41.597Z,16.16
2022-09-20T14:22:18.926Z,15.91
2022-09-20T14:24:59.437Z,15.90
2022-09-20T14:27:27.446Z,15.71
2022-09-20T14:29:56.320Z,15.78
2022-09-20T14:32:44.353Z,15.89
2022-09-20T14:35:20.135Z,15.83
2022-09-20T14:37:50.507Z,15.76
2022-09-20T14:40:23.594Z,16.00
2022-09-20T14:42:55.543Z,16.18
2022-09-20T14:45:27.275Z,16.13
2022-09-20T14:48:06.694Z,16.11
2022-09-20T14:50:42.073Z,16.33
2022-09-20T14:53:29.761Z,16.62
2022-09-20T14:56:00.224Z,16.26
2022-09-20T14:58:28.480Z,16.13
2022-09-20T15:01:01.237Z,16.26
2022-09-20T15:03:32.281Z,16.21
2022-09-20T15:06:01.596Z,16.36
2022-09-20T15:08:29.480Z,16.11
2022-09-20T15:10:57.261Z,16.06
2022-09-20T15:13:25.025Z,16.05
2022-09-20T15:15:54.767Z,16.01
2022-09-20T15:18:26.227Z,16.01
2022-09-20T15:20:54.812Z,15.80
2022-09-20T15:23:23.891Z,15.65
2022-09-20T15:25:53.079Z,15.59
2022-09-20T15:28:21.462Z,15.45
2022-09-20T15:30:51.411Z,15.56
2022-09-20T15:33:20.679Z,15.53
2022-09-20T15:35:49.338Z,15.58
2022-09-20T15:38:18.617Z,15.60
2022-09-20T15:40:50.041Z,15.47
2022-09-20T15:43:21.807Z,15.69
2022-09-20T15:45:51.400Z,15.70
2022-09-20T15:48:21.521Z,15.52
2022-09-20T15:51:02.231Z,15.32
2022-09-20T15:53:33.493Z,15.31
2022-09-20T15:56:04.542Z,15.22
2022-09-20T15:58:36.169Z,15.31
2022-09-20T16:01:06.492Z,15.23
2022-09-20T16:03:34.984Z,15.21
2022-09-20T16:06:04.757Z,15.35
2022-09-20T16:08:33.748Z,15.35
2022-09-20T16:11:04.047Z,15.44
2022-09-20T16:13:31.900Z,15.60
2022-09-20T16:16:01.192Z,15.55
2022-09-20T16:18:47.552Z,15.74
2022-09-20T16:21:16.981Z,15.83
2022-09-20T16:23:49.065Z,15.82
2022-09-20T16:26:19.623Z,15.69
2022-09-20T16:28:47.967Z,15.70
2022-09-20T16:31:36.579Z,15.66
2022-09-20T16:34:05.721Z,15.57
2022-09-20T16:36:34.039Z,15.65
2022-09-20T16:39:01.754Z,15.49
2022-09-20T16:41:32.349Z,15.41
2022-09-20T16:44:00.421Z,15.34
2022-09-20T16:46:28.559Z,15.36
2022-09-20T16:48:59.257Z,15.39
2022-09-20T16:51:33.479Z,15.36
2022-09-20T16:54:03.604Z,15.21
2022-09-20T16:56:34.809Z,15.15
2022-09-20T16:59:03.714Z,15.05
2022-09-20T17:01:32.399Z,15.10
2022-09-20T17:04:00.584Z,15.12
2022-09-20T17:06:28.805Z,15.07
2022-09-20T17:08:59.174Z,14.98
2022-09-20T17:11:28.794Z,14.95
2022-09-20T17:13:58.311Z,14.95
2022-09-20T17:16:27.796Z,14.83
2022-09-20T17:18:56.923Z,14.80
2022-09-20T17:21:25.848Z,14.74
2022-09-20T17:23:55.869Z,14.71
2022-09-20T17:26:25.731Z,14.71
2022-09-20T17:28:58.149Z,14.70
2022-09-20T17:31:30.150Z,14.71
2022-09-20T17:34:00.198Z,14.76
2022-09-20T17:36:29.717Z,14.61
2022-09-20T17:39:03.890Z,14.67
2022-09-20T17:41:33.794Z,14.68
2022-09-20T17:44:07.863Z,14.67
2022-09-20T17:46:38.642Z,14.68
2022-09-20T17:49:09.359Z,14.65
2022-09-20T17:51:39.277Z,14.50
2022-09-20T17:54:08.408Z,14.51
2022-09-20T17:56:37.024Z,14.43
2022-09-20T17:59:06.652Z,14.48
2022-09-20T18:01:36.908Z,14.42
2022-09-20T18:04:08.115Z,14.37
2022-09-20T18:06:37.811Z,14.26
2022-09-20T18:09:07.522Z,14.23
2022-09-20T18:11:36.858Z,14.24
2022-09-20T18:14:06.330Z,14.25
2022-09-20T18:16:34.982Z,14.20
2022-09-20T18:19:03.023Z,14.15
2022-09-20T18:21:35.384Z,14.11
2022-09-20T18:24:05.743Z,14.02
2022-09-20T18:26:33.829Z,14.04
2022-09-20T18:29:03.118Z,13.99
2022-09-20T18:31:35.710Z,13.96
2022-09-20T18:34:05.296Z,13.88
2022-09-20T18:36:37.196Z,13.80
2022-09-20T18:39:06.030Z,13.68
2022-09-20T18:41:35.858Z,13.58
2022-09-20T18:44:07.546Z,13.55
2022-09-20T18:46:37.980Z,13.45
2022-09-20T18:49:09.325Z,13.31
2022-09-20T18:51:40.352Z,13.28
2022-09-20T18:54:09.972Z,13.23
2022-09-20T18:56:39.658Z,13.20
2022-09-20T18:59:13.989Z,13.20
2022-09-20T19:02:05.118Z,13.02
2022-09-20T19:04:53.169Z,12.95
2022-09-20T19:07:29.052Z,12.99
2022-09-20T19:10:02.775Z,12.97
2022-09-20T19:12:36.635Z,12.94
2022-09-20T19:15:21.394Z,12.95
2022-09-20T19:18:14.343Z,12.82
2022-09-20T19:20:47.618Z,12.60
2022-09-20T19:23:34.062Z,12.47
2022-09-20T19:26:08.887Z,12.44
2022-09-20T19:28:37.327Z,12.51
2022-09-20T19:31:05.689Z,12.52
2022-09-20T19:33:33.840Z,12.54
2022-09-20T19:36:03.128Z,12.54
2022-09-20T19:38:42.669Z,12.51
2022-09-20T19:41:28.683Z,12.49
2022-09-20T19:44:15.405Z,12.48
2022-09-20T19:47:06.481Z,12.37
2022-09-20T19:49:48.393Z,12.28
2022-09-20T19:52:16.689Z,12.24
2022-09-20T19:54:46.870Z,12.24
2022-09-20T19:57:20.871Z,12.21
2022-09-20T19:59:50.496Z,12.27
2022-09-20T20:02:19.094Z,12.35
2022-09-20T20:04:47.290Z,12.36
2022-09-20T20:07:27.728Z,12.39
2022-09-20T20:10:07.898Z,12.40
2022-09-20T20:12:45.659Z,12.39
2022-09-20T20:15:22.871Z,12.22
2022-09-20T20:18:02.095Z,12.13
2022-09-20T20:20:33.908Z,12.17
2022-09-20T20:23:41.271Z,12.19
2022-09-20T20:26:18.102Z,12.11
2022-09-20T20:28:45.839Z,12.12
2022-09-20T20:31:14.251Z,12.03
2022-09-20T20:33:43.333Z,11.83
2022-09-20T20:36:11.896Z,11.74
2022-09-20T20:38:40.849Z,11.79
2022-09-20T20:41:11.842Z,11.85
2022-09-20T20:43:41.185Z,11.85
2022-09-20T20:46:10.712Z,11.83
2022-09-20T20:48:38.622Z,11.68
2022-09-20T20:51:09.495Z,11.65
2022-09-20T20:53:39.824Z,11.68
2022-09-20T20:56:12.149Z,11.69
2022-09-20T20:58:41.969Z,11.65
2022-09-20T21:01:12.571Z,11.56
2022-09-20T21:03:41.627Z,11.57
2022-09-20T21:06:11.139Z,11.57
2022-09-20T21:08:40.540Z,11.46
2022-09-20T21:11:11.661Z,11.29
2022-09-20T21:13:40.472Z,11.28
2022-09-20T21:16:11.065Z,11.32
2022-09-20T21:18:39.816Z,11.39
2022-09-20T21:21:16.132Z,11.36
2022-09-20T21:23:44.976Z,11.21
2022-09-20T21:26:15.921Z,11.23
2022-09-20T21:28:45.985Z,11.20
2022-09-20T21:31:14.201Z,11.04
2022-09-20T21:33:43.632Z,10.99
2022-09-20T21:36:13.825Z,10.90
2022-09-20T21:38:42.635Z,10.83
2022-09-20T21:41:12.228Z,10.79
2022-09-20T21:43:42.850Z,10.82
2022-09-20T21:46:14.776Z,10.80
2022-09-20T21:48:42.875Z,10.80
2022-09-20T21:51:12.370Z,10.85
2022-09-20T21:53:40.647Z,10.93
2022-09-20T21:56:10.160Z,10.97
2022-09-20T21:58:39.984Z,10.97
2022-09-20T22:01:11.519Z,10.86
2022-09-20T22:03:41.475Z,10.83
2022-09-20T22:06:11.667Z,10.82
2022-09-20T22:08:40.712Z,10.75
2022-09-20T22:11:12.289Z,10.71
2022-09-20T22:13:43.587Z,10.64
2022-09-20T22:16:14.941Z,10.58
2022-09-20T22:18:44.716Z,10.50
2022-09-20T22:21:14.207Z,10.42
2022-09-20T22:23:43.253Z,10.33
2022-09-20T22:26:13.218Z,10.20
2022-09-20T22:28:41.693Z,10.14
2022-09-20T22:31:11.671Z,10.16
2022-09-20T22:33:44.254Z,10.17
2022-09-20T22:36:15.199Z,10.11
2022-09-20T22:38:43.983Z,9.91
2022-09-20T22:41:12.872Z,9.84
2022-09-20T22:43:41.710Z,9.78
2022-09-20T22:46:12.239Z,9.80
2022-09-20T22:48:42.482Z,9.79
2022-09-20T22:51:11.746Z,9.73
2022-09-20T22:53:39.855Z,9.74
2022-09-20T22:56:09.665Z,9.72
2022-09-20T22:58:38.563Z,9.67
2022-09-20T23:01:08.085Z,9.69
2022-09-20T23:03:36.154Z,9.68
2022-09-20T23:06:05.910Z,9.69
2022-09-20T23:08:34.722Z,9.58
2022-09-20T23:11:03.713Z,9.50
2022-09-20T23:13:32.040Z,9.50
2022-09-20T23:16:00.123Z,9.46
2022-09-20T23:18:28.039Z,9.46
2022-09-20T23:21:00.252Z,9.45
2022-09-20T23:23:30.202Z,9.46
2022-09-20T23:26:07.411Z,9.46
2022-09-20T23:28:36.150Z,9.39
2022-09-20T23:31:05.290Z,9.37
2022-09-20T23:33:33.317Z,9.29
2022-09-20T23:36:01.555Z,9.33
2022-09-20T23:38:30.865Z,9.33
2022-09-20T23:41:03.920Z,9.31
2022-09-20T23:43:31.741Z,9.28
2022-09-20T23:45:59.601Z,9.31
2022-09-20T23:48:27.489Z,9.27
2022-09-20T23:50:55.983Z,9.22
2022-09-20T23:53:23.796Z,9.15
2022-09-20T23:55:53.036Z,9.03
2022-09-20T23:58:20.861Z,9.01
